sensor_id;sensor_type;location;lat;lon;timestamp;P1;durP1;ratioP1;P2;durP2;ratioP2
50757;SDS011;36732;47.980;11.652;2023-02-01T00:00:11;2.30;;;1.70;;
50757;SDS011;36732;47.980;11.652;2023-02-01T00:02:37;3.38;;;2.05;;
50757;SDS011;36732;47.980;11.652;2023-02-01T00:05:06;2.58;;;2.17;;
50757;SDS011;36732;47.980;11.652;2023-02-01T00:07:33;2.72;;;1.98;;
50757;SDS011;36732;47.980;11.652;2023-02-01T00:10:00;3.50;;;2.00;;
50757;SDS011;36732;47.980;11.652;2023-02-01T00:12:25;2.35;;;1.75;;
50757;SDS011;36732;47.980;11.652;2023-02-01T00:14:51;3.45;;;1.80;;
50757;SDS011;36732;47.980;11.652;2023-02-01T00:17:17;2.10;;;1.80;;
50757;SDS011;36732;47.980;11.652;2023-02-01T00:19:43;2.15;;;1.75;;
50757;SDS011;36732;47.980;11.652;2023-02-01T00:22:08;2.67;;;1.77;;
50757;SDS011;36732;47.980;11.652;2023-02-01T00:24:34;3.05;;;1.98;;
50757;SDS011;36732;47.980;11.652;2023-02-01T00:27:00;1.92;;;1.48;;
50757;SDS011;36732;47.980;11.652;2023-02-01T00:29:26;1.90;;;1.70;;
50757;SDS011;36732;47.980;11.652;2023-02-01T00:31:51;1.50;;;1.23;;
50757;SDS011;36732;47.980;11.652;2023-02-01T00:34:17;2.35;;;1.73;;
50757;SDS011;36732;47.980;11.652;2023-02-01T00:36:44;2.33;;;1.35;;
50757;SDS011;36732;47.980;11.652;2023-02-01T00:39:10;2.63;;;1.67;;
50757;SDS011;36732;47.980;11.652;2023-02-01T00:41:36;2.53;;;1.58;;
50757;SDS011;36732;47.980;11.652;2023-02-01T00:44:02;1.85;;;1.50;;
50757;SDS011;36732;47.980;11.652;2023-02-01T00:46:28;2.17;;;1.40;;
50757;SDS011;36732;47.980;11.652;2023-02-01T00:48:54;2.30;;;1.60;;
50757;SDS011;36732;47.980;11.652;2023-02-01T00:51:22;2.75;;;1.48;;
50757;SDS011;36732;47.980;11.652;2023-02-01T00:53:53;4.00;;;2.03;;
50757;SDS011;36732;47.980;11.652;2023-02-01T00:56:19;2.95;;;1.52;;
50757;SDS011;36732;47.980;11.652;2023-02-01T00:58:45;1.70;;;1.40;;
50757;SDS011;36732;47.980;11.652;2023-02-01T01:01:14;1.65;;;1.55;;
50757;SDS011;36732;47.980;11.652;2023-02-01T01:03:45;1.73;;;1.40;;
50757;SDS011;36732;47.980;11.652;2023-02-01T01:06:14;2.20;;;1.50;;
50757;SDS011;36732;47.980;11.652;2023-02-01T01:08:43;2.17;;;1.75;;
50757;SDS011;36732;47.980;11.652;2023-02-01T01:11:13;2.03;;;1.45;;
50757;SDS011;36732;47.980;11.652;2023-02-01T01:13:43;1.80;;;1.48;;
50757;SDS011;36732;47.980;11.652;2023-02-01T01:16:11;1.98;;;1.63;;
50757;SDS011;36732;47.980;11.652;2023-02-01T01:18:37;2.70;;;1.58;;
50757;SDS011;36732;47.980;11.652;2023-02-01T01:21:07;1.80;;;1.50;;
50757;SDS011;36732;47.980;11.652;2023-02-01T01:23:33;3.35;;;1.95;;
50757;SDS011;36732;47.980;11.652;2023-02-01T01:26:04;2.45;;;1.60;;
50757;SDS011;36732;47.980;11.652;2023-02-01T01:28:35;1.95;;;1.75;;
50757;SDS011;36732;47.980;11.652;2023-02-01T01:31:01;1.70;;;1.50;;
50757;SDS011;36732;47.980;11.652;2023-02-01T01:33:27;1.90;;;1.38;;
50757;SDS011;36732;47.980;11.652;2023-02-01T01:35:52;3.42;;;1.60;;
50757;SDS011;36732;47.980;11.652;2023-02-01T01:38:18;3.67;;;2.30;;
50757;SDS011;36732;47.980;11.652;2023-02-01T01:40:45;2.42;;;2.10;;
50757;SDS011;36732;47.980;11.652;2023-02-01T01:43:16;2.45;;;2.08;;
50757;SDS011;36732;47.980;11.652;2023-02-01T01:45:47;2.00;;;1.50;;
50757;SDS011;36732;47.980;11.652;2023-02-01T01:48:21;3.38;;;2.10;;
50757;SDS011;36732;47.980;11.652;2023-02-01T01:53:24;2.40;;;2.10;;
50757;SDS011;36732;47.980;11.652;2023-02-01T01:56:02;2.58;;;1.90;;
50757;SDS011;36732;47.980;11.652;2023-02-01T01:58:29;2.55;;;2.05;;
50757;SDS011;36732;47.980;11.652;2023-02-01T02:00:57;3.38;;;2.10;;
50757;SDS011;36732;47.980;11.652;2023-02-01T02:03:24;4.63;;;2.08;;
50757;SDS011;36732;47.980;11.652;2023-02-01T02:05:58;2.38;;;2.08;;
50757;SDS011;36732;47.980;11.652;2023-02-01T02:08:26;2.40;;;1.85;;
50757;SDS011;36732;47.980;11.652;2023-02-01T02:10:52;3.30;;;2.53;;
50757;SDS011;36732;47.980;11.652;2023-02-01T02:27:36;3.72;;;1.92;;
50757;SDS011;36732;47.980;11.652;2023-02-01T02:30:58;2.20;;;1.95;;
50757;SDS011;36732;47.980;11.652;2023-02-01T02:39:45;2.63;;;1.83;;
50757;SDS011;36732;47.980;11.652;2023-02-01T02:45:53;2.10;;;1.80;;
50757;SDS011;36732;47.980;11.652;2023-02-01T02:48:46;2.28;;;1.67;;
50757;SDS011;36732;47.980;11.652;2023-02-01T02:54:26;2.47;;;2.20;;
50757;SDS011;36732;47.980;11.652;2023-02-01T02:57:15;2.90;;;1.95;;
50757;SDS011;36732;47.980;11.652;2023-02-01T03:00:05;2.70;;;1.95;;
50757;SDS011;36732;47.980;11.652;2023-02-01T03:02:54;4.18;;;2.08;;
50757;SDS011;36732;47.980;11.652;2023-02-01T03:05:43;2.25;;;1.80;;
50757;SDS011;36732;47.980;11.652;2023-02-01T03:08:12;2.65;;;1.83;;
50757;SDS011;36732;47.980;11.652;2023-02-01T03:10:50;2.50;;;2.10;;
50757;SDS011;36732;47.980;11.652;2023-02-01T03:16:18;2.70;;;2.00;;
50757;SDS011;36732;47.980;11.652;2023-02-01T03:21:31;2.97;;;1.98;;
50757;SDS011;36732;47.980;11.652;2023-02-01T03:24:02;2.55;;;2.00;;
50757;SDS011;36732;47.980;11.652;2023-02-01T03:26:36;3.00;;;1.88;;
50757;SDS011;36732;47.980;11.652;2023-02-01T03:29:12;2.70;;;2.40;;
50757;SDS011;36732;47.980;11.652;2023-02-01T03:31:42;3.13;;;2.45;;
50757;SDS011;36732;47.980;11.652;2023-02-01T03:34:10;2.40;;;1.88;;
50757;SDS011;36732;47.980;11.652;2023-02-01T03:36:43;3.33;;;2.10;;
50757;SDS011;36732;47.980;11.652;2023-02-01T03:39:25;2.45;;;1.98;;
50757;SDS011;36732;47.980;11.652;2023-02-01T03:42:02;2.25;;;2.05;;
50757;SDS011;36732;47.980;11.652;2023-02-01T03:44:40;1.77;;;1.55;;
50757;SDS011;36732;47.980;11.652;2023-02-01T03:47:15;2.72;;;1.90;;
50757;SDS011;36732;47.980;11.652;2023-02-01T03:49:50;2.85;;;2.10;;
50757;SDS011;36732;47.980;11.652;2023-02-01T03:52:22;4.03;;;1.60;;
50757;SDS011;36732;47.980;11.652;2023-02-01T03:54:59;2.35;;;1.95;;
50757;SDS011;36732;47.980;11.652;2023-02-01T03:57:26;1.73;;;1.60;;
50757;SDS011;36732;47.980;11.652;2023-02-01T04:00:08;2.85;;;2.05;;
50757;SDS011;36732;47.980;11.652;2023-02-01T04:02:44;3.10;;;1.98;;
50757;SDS011;36732;47.980;11.652;2023-02-01T04:05:09;1.90;;;1.70;;
50757;SDS011;36732;47.980;11.652;2023-02-01T04:07:35;3.13;;;2.15;;
50757;SDS011;36732;47.980;11.652;2023-02-01T04:10:01;2.28;;;1.90;;
50757;SDS011;36732;47.980;11.652;2023-02-01T04:12:28;2.30;;;2.10;;
50757;SDS011;36732;47.980;11.652;2023-02-01T04:14:54;5.65;;;2.22;;
50757;SDS011;36732;47.980;11.652;2023-02-01T04:17:20;2.33;;;2.10;;
50757;SDS011;36732;47.980;11.652;2023-02-01T04:19:45;3.05;;;2.45;;
50757;SDS011;36732;47.980;11.652;2023-02-01T04:22:11;3.38;;;2.00;;
50757;SDS011;36732;47.980;11.652;2023-02-01T04:24:37;3.03;;;2.20;;
50757;SDS011;36732;47.980;11.652;2023-02-01T04:27:03;2.80;;;2.00;;
50757;SDS011;36732;47.980;11.652;2023-02-01T04:29:29;2.33;;;2.08;;
50757;SDS011;36732;47.980;11.652;2023-02-01T04:31:54;2.67;;;2.13;;
50757;SDS011;36732;47.980;11.652;2023-02-01T04:34:20;2.72;;;2.20;;
50757;SDS011;36732;47.980;11.652;2023-02-01T04:36:47;2.72;;;2.13;;
50757;SDS011;36732;47.980;11.652;2023-02-01T04:39:13;2.60;;;2.40;;
50757;SDS011;36732;47.980;11.652;2023-02-01T04:41:39;2.88;;;1.92;;
50757;SDS011;36732;47.980;11.652;2023-02-01T04:44:05;3.00;;;2.42;;
50757;SDS011;36732;47.980;11.652;2023-02-01T04:46:30;3.03;;;2.50;;
50757;SDS011;36732;47.980;11.652;2023-02-01T04:48:56;3.42;;;2.55;;
50757;SDS011;36732;47.980;11.652;2023-02-01T04:51:22;3.40;;;2.50;;
50757;SDS011;36732;47.980;11.652;2023-02-01T04:53:48;3.22;;;2.20;;
50757;SDS011;36732;47.980;11.652;2023-02-01T04:56:13;5.53;;;2.13;;
50757;SDS011;36732;47.980;11.652;2023-02-01T04:58:39;2.72;;;2.10;;
50757;SDS011;36732;47.980;11.652;2023-02-01T05:01:05;3.17;;;2.30;;
50757;SDS011;36732;47.980;11.652;2023-02-01T05:03:32;2.78;;;2.22;;
50757;SDS011;36732;47.980;11.652;2023-02-01T05:05:58;2.42;;;2.10;;
50757;SDS011;36732;47.980;11.652;2023-02-01T05:08:25;2.40;;;1.90;;
50757;SDS011;36732;47.980;11.652;2023-02-01T05:10:51;6.00;;;2.70;;
50757;SDS011;36732;47.980;11.652;2023-02-01T05:13:18;3.05;;;2.25;;
50757;SDS011;36732;47.980;11.652;2023-02-01T05:16:02;3.25;;;2.50;;
50757;SDS011;36732;47.980;11.652;2023-02-01T05:18:28;2.47;;;2.25;;
50757;SDS011;36732;47.980;11.652;2023-02-01T05:20:53;2.80;;;2.30;;
50757;SDS011;36732;47.980;11.652;2023-02-01T05:23:20;3.00;;;2.50;;
50757;SDS011;36732;47.980;11.652;2023-02-01T05:25:45;2.85;;;2.55;;
50757;SDS011;36732;47.980;11.652;2023-02-01T05:28:11;3.67;;;2.53;;
50757;SDS011;36732;47.980;11.652;2023-02-01T05:30:37;4.93;;;3.10;;
50757;SDS011;36732;47.980;11.652;2023-02-01T05:33:02;3.30;;;2.45;;
50757;SDS011;36732;47.980;11.652;2023-02-01T05:35:28;3.40;;;3.10;;
50757;SDS011;36732;47.980;11.652;2023-02-01T05:37:54;3.38;;;2.83;;
50757;SDS011;36732;47.980;11.652;2023-02-01T05:40:20;4.13;;;2.95;;
50757;SDS011;36732;47.980;11.652;2023-02-01T05:42:46;3.35;;;2.50;;
50757;SDS011;36732;47.980;11.652;2023-02-01T05:45:12;4.18;;;2.60;;
50757;SDS011;36732;47.980;11.652;2023-02-01T05:47:37;3.20;;;2.70;;
50757;SDS011;36732;47.980;11.652;2023-02-01T05:50:04;3.38;;;2.63;;
50757;SDS011;36732;47.980;11.652;2023-02-01T05:52:30;2.70;;;2.35;;
50757;SDS011;36732;47.980;11.652;2023-02-01T05:54:57;2.95;;;2.65;;
50757;SDS011;36732;47.980;11.652;2023-02-01T05:57:22;3.45;;;2.80;;
50757;SDS011;36732;47.980;11.652;2023-02-01T05:59:48;3.40;;;2.70;;
50757;SDS011;36732;47.980;11.652;2023-02-01T06:02:17;4.57;;;2.80;;
50757;SDS011;36732;47.980;11.652;2023-02-01T06:04:43;4.85;;;2.80;;
50757;SDS011;36732;47.980;11.652;2023-02-01T06:07:09;4.03;;;2.45;;
50757;SDS011;36732;47.980;11.652;2023-02-01T06:09:35;3.70;;;2.70;;
50757;SDS011;36732;47.980;11.652;2023-02-01T06:12:01;4.93;;;3.67;;
50757;SDS011;36732;47.980;11.652;2023-02-01T06:14:28;3.83;;;2.78;;
50757;SDS011;36732;47.980;11.652;2023-02-01T06:16:54;3.80;;;3.30;;
50757;SDS011;36732;47.980;11.652;2023-02-01T06:19:20;3.38;;;2.80;;
50757;SDS011;36732;47.980;11.652;2023-02-01T06:21:47;3.67;;;2.95;;
50757;SDS011;36732;47.980;11.652;2023-02-01T06:24:13;5.32;;;2.47;;
50757;SDS011;36732;47.980;11.652;2023-02-01T06:26:39;4.50;;;2.80;;
50757;SDS011;36732;47.980;11.652;2023-02-01T06:29:06;3.22;;;2.70;;
50757;SDS011;36732;47.980;11.652;2023-02-01T06:31:32;4.60;;;2.97;;
50757;SDS011;36732;47.980;11.652;2023-02-01T06:33:58;4.45;;;2.60;;
50757;SDS011;36732;47.980;11.652;2023-02-01T06:36:24;4.07;;;3.08;;
50757;SDS011;36732;47.980;11.652;2023-02-01T06:38:50;3.20;;;2.55;;
50757;SDS011;36732;47.980;11.652;2023-02-01T06:41:15;3.40;;;2.55;;
50757;SDS011;36732;47.980;11.652;2023-02-01T06:43:41;3.35;;;2.60;;
50757;SDS011;36732;47.980;11.652;2023-02-01T06:46:09;2.97;;;2.67;;
50757;SDS011;36732;47.980;11.652;2023-02-01T06:48:37;4.18;;;3.20;;
50757;SDS011;36732;47.980;11.652;2023-02-01T06:51:03;3.63;;;2.90;;
50757;SDS011;36732;47.980;11.652;2023-02-01T06:53:29;3.40;;;3.05;;
50757;SDS011;36732;47.980;11.652;2023-02-01T06:55:56;3.00;;;2.60;;
50757;SDS011;36732;47.980;11.652;2023-02-01T06:58:29;3.20;;;2.50;;
50757;SDS011;36732;47.980;11.652;2023-02-01T07:00:58;2.88;;;2.20;;
50757;SDS011;36732;47.980;11.652;2023-02-01T07:03:30;2.90;;;2.60;;
50757;SDS011;36732;47.980;11.652;2023-02-01T07:05:56;3.38;;;2.50;;
50757;SDS011;36732;47.980;11.652;2023-02-01T07:08:29;2.97;;;2.67;;
50757;SDS011;36732;47.980;11.652;2023-02-01T07:11:00;3.65;;;2.63;;
50757;SDS011;36732;47.980;11.652;2023-02-01T07:13:28;3.30;;;2.67;;
50757;SDS011;36732;47.980;11.652;2023-02-01T07:15:57;3.95;;;3.00;;
50757;SDS011;36732;47.980;11.652;2023-02-01T07:18:27;3.75;;;2.13;;
50757;SDS011;36732;47.980;11.652;2023-02-01T07:20:54;3.33;;;2.40;;
50757;SDS011;36732;47.980;11.652;2023-02-01T07:23:20;3.85;;;2.70;;
50757;SDS011;36732;47.980;11.652;2023-02-01T07:25:46;3.30;;;2.58;;
50757;SDS011;36732;47.980;11.652;2023-02-01T07:28:12;3.92;;;2.28;;
50757;SDS011;36732;47.980;11.652;2023-02-01T07:30:38;4.18;;;2.13;;
50757;SDS011;36732;47.980;11.652;2023-02-01T07:33:04;3.55;;;2.80;;
50757;SDS011;36732;47.980;11.652;2023-02-01T07:35:30;4.10;;;2.33;;
50757;SDS011;36732;47.980;11.652;2023-02-01T07:37:56;3.13;;;2.28;;
50757;SDS011;36732;47.980;11.652;2023-02-01T07:40:23;2.55;;;2.10;;
50757;SDS011;36732;47.980;11.652;2023-02-01T07:42:53;2.92;;;2.40;;
50757;SDS011;36732;47.980;11.652;2023-02-01T07:45:20;4.32;;;2.78;;
50757;SDS011;36732;47.980;11.652;2023-02-01T07:47:47;2.67;;;2.17;;
50757;SDS011;36732;47.980;11.652;2023-02-01T07:50:13;3.00;;;2.22;;
50757;SDS011;36732;47.980;11.652;2023-02-01T07:52:38;2.85;;;2.20;;
50757;SDS011;36732;47.980;11.652;2023-02-01T07:55:05;3.10;;;2.45;;
50757;SDS011;36732;47.980;11.652;2023-02-01T07:57:32;2.95;;;2.38;;
50757;SDS011;36732;47.980;11.652;2023-02-01T07:59:58;3.33;;;2.30;;
50757;SDS011;36732;47.980;11.652;2023-02-01T08:02:42;2.97;;;2.10;;
50757;SDS011;36732;47.980;11.652;2023-02-01T08:05:08;3.85;;;2.60;;
50757;SDS011;36732;47.980;11.652;2023-02-01T08:07:34;3.08;;;2.65;;
50757;SDS011;36732;47.980;11.652;2023-02-01T08:10:00;3.00;;;2.25;;
50757;SDS011;36732;47.980;11.652;2023-02-01T08:12:26;3.05;;;2.03;;
50757;SDS011;36732;47.980;11.652;2023-02-01T08:14:52;2.88;;;2.22;;
50757;SDS011;36732;47.980;11.652;2023-02-01T08:17:18;2.50;;;2.17;;
50757;SDS011;36732;47.980;11.652;2023-02-01T08:19:45;3.45;;;2.40;;
50757;SDS011;36732;47.980;11.652;2023-02-01T08:22:10;3.58;;;2.25;;
50757;SDS011;36732;47.980;11.652;2023-02-01T08:24:36;4.18;;;2.17;;
50757;SDS011;36732;47.980;11.652;2023-02-01T08:27:05;3.72;;;2.15;;
50757;SDS011;36732;47.980;11.652;2023-02-01T08:29:31;1.80;;;1.65;;
50757;SDS011;36732;47.980;11.652;2023-02-01T08:31:57;2.92;;;2.22;;
50757;SDS011;36732;47.980;11.652;2023-02-01T08:34:23;2.38;;;1.90;;
50757;SDS011;36732;47.980;11.652;2023-02-01T08:36:49;2.90;;;2.35;;
50757;SDS011;36732;47.980;11.652;2023-02-01T08:39:16;4.38;;;2.05;;
50757;SDS011;36732;47.980;11.652;2023-02-01T08:41:42;2.50;;;2.22;;
50757;SDS011;36732;47.980;11.652;2023-02-01T08:44:28;3.00;;;2.20;;
50757;SDS011;36732;47.980;11.652;2023-02-01T08:46:53;2.53;;;2.08;;
50757;SDS011;36732;47.980;11.652;2023-02-01T08:49:19;2.40;;;2.00;;
50757;SDS011;36732;47.980;11.652;2023-02-01T08:51:45;1.77;;;1.63;;
50757;SDS011;36732;47.980;11.652;2023-02-01T08:54:10;3.40;;;2.40;;
50757;SDS011;36732;47.980;11.652;2023-02-01T08:56:36;2.75;;;2.05;;
50757;SDS011;36732;47.980;11.652;2023-02-01T08:59:02;2.45;;;1.92;;
50757;SDS011;36732;47.980;11.652;2023-02-01T09:01:28;4.03;;;2.60;;
50757;SDS011;36732;47.980;11.652;2023-02-01T09:03:53;3.83;;;2.63;;
50757;SDS011;36732;47.980;11.652;2023-02-01T09:06:19;2.72;;;2.22;;
50757;SDS011;36732;47.980;11.652;2023-02-01T09:08:45;2.30;;;1.90;;
50757;SDS011;36732;47.980;11.652;2023-02-01T09:11:12;2.50;;;2.10;;
50757;SDS011;36732;47.980;11.652;2023-02-01T09:13:41;2.90;;;1.90;;
50757;SDS011;36732;47.980;11.652;2023-02-01T09:16:06;2.30;;;1.90;;
50757;SDS011;36732;47.980;11.652;2023-02-01T09:18:32;2.80;;;2.17;;
50757;SDS011;36732;47.980;11.652;2023-02-01T09:20:58;2.78;;;1.88;;
50757;SDS011;36732;47.980;11.652;2023-02-01T09:23:24;2.13;;;1.52;;
50757;SDS011;36732;47.980;11.652;2023-02-01T09:25:50;2.55;;;2.10;;
50757;SDS011;36732;47.980;11.652;2023-02-01T09:28:16;2.90;;;1.73;;
50757;SDS011;36732;47.980;11.652;2023-02-01T09:30:43;2.80;;;2.00;;
50757;SDS011;36732;47.980;11.652;2023-02-01T09:33:09;4.90;;;3.03;;
50757;SDS011;36732;47.980;11.652;2023-02-01T09:35:34;3.53;;;2.80;;
50757;SDS011;36732;47.980;11.652;2023-02-01T09:38:00;4.28;;;3.15;;
50757;SDS011;36732;47.980;11.652;2023-02-01T09:40:26;2.65;;;2.28;;
50757;SDS011;36732;47.980;11.652;2023-02-01T09:43:11;2.40;;;2.13;;
50757;SDS011;36732;47.980;11.652;2023-02-01T09:46:24;4.43;;;2.40;;
50757;SDS011;36732;47.980;11.652;2023-02-01T09:48:54;3.83;;;2.50;;
50757;SDS011;36732;47.980;11.652;2023-02-01T09:51:27;3.78;;;2.75;;
50757;SDS011;36732;47.980;11.652;2023-02-01T09:54:04;4.03;;;2.72;;
50757;SDS011;36732;47.980;11.652;2023-02-01T09:56:41;4.05;;;2.47;;
50757;SDS011;36732;47.980;11.652;2023-02-01T09:59:41;3.28;;;2.58;;
50757;SDS011;36732;47.980;11.652;2023-02-01T10:02:28;4.45;;;2.72;;
50757;SDS011;36732;47.980;11.652;2023-02-01T10:04:56;5.43;;;3.58;;
50757;SDS011;36732;47.980;11.652;2023-02-01T10:07:38;5.30;;;3.90;;
50757;SDS011;36732;47.980;11.652;2023-02-01T10:10:23;3.97;;;2.72;;
50757;SDS011;36732;47.980;11.652;2023-02-01T10:13:09;5.05;;;4.00;;
50757;SDS011;36732;47.980;11.652;2023-02-01T10:16:13;4.45;;;3.45;;
50757;SDS011;36732;47.980;11.652;2023-02-01T10:22:05;5.10;;;3.30;;
50757;SDS011;36732;47.980;11.652;2023-02-01T10:24:58;4.25;;;2.80;;
50757;SDS011;36732;47.980;11.652;2023-02-01T10:27:39;4.18;;;3.13;;
50757;SDS011;36732;47.980;11.652;2023-02-01T10:30:13;3.72;;;2.63;;
50757;SDS011;36732;47.980;11.652;2023-02-01T10:32:44;3.75;;;2.70;;
50757;SDS011;36732;47.980;11.652;2023-02-01T10:35:13;5.80;;;3.22;;
50757;SDS011;36732;47.980;11.652;2023-02-01T10:37:43;3.53;;;2.38;;
50757;SDS011;36732;47.980;11.652;2023-02-01T10:40:19;4.43;;;2.70;;
50757;SDS011;36732;47.980;11.652;2023-02-01T10:42:50;5.63;;;3.22;;
50757;SDS011;36732;47.980;11.652;2023-02-01T10:45:29;4.55;;;3.10;;
50757;SDS011;36732;47.980;11.652;2023-02-01T10:47:57;5.05;;;2.92;;
50757;SDS011;36732;47.980;11.652;2023-02-01T10:53:16;4.03;;;2.53;;
50757;SDS011;36732;47.980;11.652;2023-02-01T10:56:13;3.65;;;1.88;;
50757;SDS011;36732;47.980;11.652;2023-02-01T10:58:45;2.67;;;1.95;;
50757;SDS011;36732;47.980;11.652;2023-02-01T11:01:16;3.80;;;2.53;;
50757;SDS011;36732;47.980;11.652;2023-02-01T11:03:59;2.63;;;1.90;;
50757;SDS011;36732;47.980;11.652;2023-02-01T11:06:28;3.50;;;2.13;;
50757;SDS011;36732;47.980;11.652;2023-02-01T11:11:32;6.45;;;2.47;;
50757;SDS011;36732;47.980;11.652;2023-02-01T11:19:44;2.70;;;1.90;;
50757;SDS011;36732;47.980;11.652;2023-02-01T11:22:11;3.25;;;2.20;;
50757;SDS011;36732;47.980;11.652;2023-02-01T11:24:38;2.38;;;1.77;;
50757;SDS011;36732;47.980;11.652;2023-02-01T11:27:12;2.85;;;2.15;;
50757;SDS011;36732;47.980;11.652;2023-02-01T11:29:43;2.33;;;1.88;;
50757;SDS011;36732;47.980;11.652;2023-02-01T11:32:13;1.90;;;1.60;;
50757;SDS011;36732;47.980;11.652;2023-02-01T11:37:21;1.45;;;1.35;;
50757;SDS011;36732;47.980;11.652;2023-02-01T11:39:59;2.22;;;1.60;;
50757;SDS011;36732;47.980;11.652;2023-02-01T11:42:29;1.80;;;1.65;;
50757;SDS011;36732;47.980;11.652;2023-02-01T11:47:56;2.03;;;1.50;;
50757;SDS011;36732;47.980;11.652;2023-02-01T11:53:13;2.63;;;1.52;;
50757;SDS011;36732;47.980;11.652;2023-02-01T12:04:36;1.90;;;1.60;;
50757;SDS011;36732;47.980;11.652;2023-02-01T12:08:02;3.33;;;1.55;;
50757;SDS011;36732;47.980;11.652;2023-02-01T12:16:17;3.85;;;1.88;;
50757;SDS011;36732;47.980;11.652;2023-02-01T12:32:08;2.25;;;1.58;;
50757;SDS011;36732;47.980;11.652;2023-02-01T12:37:23;5.20;;;1.70;;
50757;SDS011;36732;47.980;11.652;2023-02-01T12:43:12;2.90;;;1.52;;
50757;SDS011;36732;47.980;11.652;2023-02-01T12:46:18;3.38;;;1.75;;
50757;SDS011;36732;47.980;11.652;2023-02-01T12:52:58;3.90;;;1.75;;
50757;SDS011;36732;47.980;11.652;2023-02-01T12:55:22;2.77;;;1.67;;
50757;SDS011;36732;47.980;11.652;2023-02-01T12:58:06;2.85;;;1.33;;
50757;SDS011;36732;47.980;11.652;2023-02-01T13:03:21;2.85;;;1.60;;
50757;SDS011;36732;47.980;11.652;2023-02-01T13:06:19;3.10;;;1.75;;
50757;SDS011;36732;47.980;11.652;2023-02-01T13:11:53;7.07;;;2.28;;
50757;SDS011;36732;47.980;11.652;2023-02-01T13:14:33;5.65;;;1.50;;
50757;SDS011;36732;47.980;11.652;2023-02-01T13:19:57;6.80;;;2.60;;
50757;SDS011;36732;47.980;11.652;2023-02-01T13:25:49;3.72;;;2.38;;
50757;SDS011;36732;47.980;11.652;2023-02-01T13:28:18;2.80;;;1.80;;
50757;SDS011;36732;47.980;11.652;2023-02-01T13:39:59;3.40;;;1.80;;
50757;SDS011;36732;47.980;11.652;2023-02-01T13:42:50;2.60;;;1.90;;
50757;SDS011;36732;47.980;11.652;2023-02-01T13:47:49;5.82;;;2.38;;
50757;SDS011;36732;47.980;11.652;2023-02-01T13:52:57;3.65;;;1.70;;
50757;SDS011;36732;47.980;11.652;2023-02-01T13:55:55;2.85;;;1.63;;
50757;SDS011;36732;47.980;11.652;2023-02-01T14:03:51;2.15;;;1.40;;
50757;SDS011;36732;47.980;11.652;2023-02-01T14:16:41;2.40;;;1.58;;
50757;SDS011;36732;47.980;11.652;2023-02-01T14:19:09;3.03;;;2.20;;
50757;SDS011;36732;47.980;11.652;2023-02-01T14:21:59;3.28;;;1.85;;
50757;SDS011;36732;47.980;11.652;2023-02-01T14:24:52;2.92;;;1.67;;
50757;SDS011;36732;47.980;11.652;2023-02-01T14:27:21;2.38;;;1.83;;
50757;SDS011;36732;47.980;11.652;2023-02-01T14:29:59;3.38;;;1.50;;
50757;SDS011;36732;47.980;11.652;2023-02-01T14:32:33;4.88;;;1.80;;
50757;SDS011;36732;47.980;11.652;2023-02-01T14:35:05;1.85;;;1.30;;
50757;SDS011;36732;47.980;11.652;2023-02-01T14:37:43;2.70;;;1.70;;
50757;SDS011;36732;47.980;11.652;2023-02-01T14:50:17;2.30;;;1.63;;
50757;SDS011;36732;47.980;11.652;2023-02-01T14:55:45;1.80;;;1.50;;
50757;SDS011;36732;47.980;11.652;2023-02-01T15:14:37;2.88;;;1.60;;
50757;SDS011;36732;47.980;11.652;2023-02-01T15:19:56;2.63;;;1.42;;
50757;SDS011;36732;47.980;11.652;2023-02-01T15:22:24;4.20;;;1.90;;
50757;SDS011;36732;47.980;11.652;2023-02-01T15:24:53;2.88;;;1.50;;
50757;SDS011;36732;47.980;11.652;2023-02-01T15:27:25;4.28;;;2.10;;
50757;SDS011;36732;47.980;11.652;2023-02-01T15:29:52;5.72;;;1.80;;
50757;SDS011;36732;47.980;11.652;2023-02-01T15:32:32;3.22;;;1.60;;
50757;SDS011;36732;47.980;11.652;2023-02-01T15:35:03;3.65;;;1.70;;
50757;SDS011;36732;47.980;11.652;2023-02-01T15:37:29;1.88;;;1.52;;
50757;SDS011;36732;47.980;11.652;2023-02-01T15:42:56;2.75;;;1.90;;
50757;SDS011;36732;47.980;11.652;2023-02-01T15:45:29;3.88;;;2.10;;
50757;SDS011;36732;47.980;11.652;2023-02-01T15:47:58;2.42;;;1.90;;
50757;SDS011;36732;47.980;11.652;2023-02-01T15:50:32;3.35;;;2.13;;
50757;SDS011;36732;47.980;11.652;2023-02-01T15:52:58;2.58;;;1.30;;
50757;SDS011;36732;47.980;11.652;2023-02-01T15:55:37;3.80;;;1.80;;
50757;SDS011;36732;47.980;11.652;2023-02-01T15:58:07;3.97;;;1.90;;
50757;SDS011;36732;47.980;11.652;2023-02-01T16:03:26;4.47;;;2.47;;
50757;SDS011;36732;47.980;11.652;2023-02-01T16:05:58;5.65;;;2.25;;
50757;SDS011;36732;47.980;11.652;2023-02-01T16:08:27;4.53;;;2.05;;
50757;SDS011;36732;47.980;11.652;2023-02-01T16:11:00;3.58;;;1.95;;
50757;SDS011;36732;47.980;11.652;2023-02-01T16:13:39;3.20;;;1.88;;
50757;SDS011;36732;47.980;11.652;2023-02-01T16:16:06;2.85;;;1.63;;
50757;SDS011;36732;47.980;11.652;2023-02-01T16:18:38;3.05;;;1.48;;
50757;SDS011;36732;47.980;11.652;2023-02-01T16:21:07;4.90;;;1.67;;
50757;SDS011;36732;47.980;11.652;2023-02-01T16:23:34;3.70;;;1.58;;
50757;SDS011;36732;47.980;11.652;2023-02-01T16:26:01;5.05;;;1.52;;
50757;SDS011;36732;47.980;11.652;2023-02-01T16:28:28;3.60;;;1.55;;
50757;SDS011;36732;47.980;11.652;2023-02-01T16:30:54;3.17;;;1.23;;
50757;SDS011;36732;47.980;11.652;2023-02-01T16:33:20;3.13;;;1.55;;
50757;SDS011;36732;47.980;11.652;2023-02-01T16:35:47;3.28;;;1.70;;
50757;SDS011;36732;47.980;11.652;2023-02-01T16:38:15;3.63;;;1.38;;
50757;SDS011;36732;47.980;11.652;2023-02-01T16:40:45;4.90;;;1.52;;
50757;SDS011;36732;47.980;11.652;2023-02-01T16:43:15;2.88;;;1.45;;
50757;SDS011;36732;47.980;11.652;2023-02-01T16:45:49;3.35;;;1.77;;
50757;SDS011;36732;47.980;11.652;2023-02-01T16:50:56;2.88;;;1.30;;
50757;SDS011;36732;47.980;11.652;2023-02-01T16:53:29;4.20;;;1.60;;
50757;SDS011;36732;47.980;11.652;2023-02-01T16:55:56;4.05;;;1.75;;
50757;SDS011;36732;47.980;11.652;2023-02-01T16:58:22;6.72;;;1.85;;
50757;SDS011;36732;47.980;11.652;2023-02-01T17:00:50;4.40;;;1.92;;
50757;SDS011;36732;47.980;11.652;2023-02-01T17:03:17;2.50;;;1.48;;
50757;SDS011;36732;47.980;11.652;2023-02-01T17:05:48;2.97;;;1.60;;
50757;SDS011;36732;47.980;11.652;2023-02-01T17:08:19;3.97;;;1.55;;
50757;SDS011;36732;47.980;11.652;2023-02-01T17:10:53;6.65;;;1.65;;
50757;SDS011;36732;47.980;11.652;2023-02-01T17:13:19;4.53;;;1.80;;
50757;SDS011;36732;47.980;11.652;2023-02-01T17:15:47;4.88;;;1.42;;
50757;SDS011;36732;47.980;11.652;2023-02-01T17:18:30;5.80;;;1.33;;
50757;SDS011;36732;47.980;11.652;2023-02-01T17:21:00;2.97;;;1.55;;
50757;SDS011;36732;47.980;11.652;2023-02-01T17:23:28;5.78;;;1.90;;
50757;SDS011;36732;47.980;11.652;2023-02-01T17:25:55;4.07;;;1.67;;
50757;SDS011;36732;47.980;11.652;2023-02-01T17:28:21;3.78;;;1.40;;
50757;SDS011;36732;47.980;11.652;2023-02-01T17:30:48;3.13;;;1.50;;
50757;SDS011;36732;47.980;11.652;2023-02-01T17:33:24;4.50;;;1.85;;
50757;SDS011;36732;47.980;11.652;2023-02-01T17:35:54;5.25;;;1.88;;
50757;SDS011;36732;47.980;11.652;2023-02-01T17:38:20;5.68;;;1.95;;
50757;SDS011;36732;47.980;11.652;2023-02-01T17:40:47;4.18;;;1.95;;
50757;SDS011;36732;47.980;11.652;2023-02-01T17:43:21;4.47;;;1.63;;
50757;SDS011;36732;47.980;11.652;2023-02-01T17:45:53;5.40;;;1.38;;
50757;SDS011;36732;47.980;11.652;2023-02-01T17:48:23;3.97;;;1.63;;
50757;SDS011;36732;47.980;11.652;2023-02-01T17:50:49;4.25;;;1.63;;